createdAt,value
2022-08-14T00:03:55.231Z,30
2022-08-14T00:10:53.612Z,50
2022-08-14T00:16:46.011Z,42
2022-08-14T00:23:17.817Z,44
2022-08-14T00:28:53.957Z,46
2022-08-14T00:34:49.344Z,38
2022-08-14T00:40:36.690Z,30
2022-08-14T00:46:34.254Z,52
2022-08-14T00:52:19.374Z,36
2022-08-14T00:57:55.016Z,30
2022-08-14T01:03:31.587Z,42
2022-08-14T01:09:16.050Z,63
2022-08-14T01:14:51.923Z,49
2022-08-14T01:20:30.714Z,46
2022-08-14T01:26:39.626Z,34
2022-08-14T01:32:24.785Z,50
2022-08-14T01:38:01.323Z,38
2022-08-14T01:43:57.813Z,38
2022-08-14T01:50:02.538Z,38
2022-08-14T01:55:41.070Z,36
2022-08-14T02:01:16.904Z,42
2022-08-14T02:06:56.307Z,50
2022-08-14T02:12:32.604Z,52
2022-08-14T02:18:08.070Z,36
2022-08-14T02:23:42.851Z,44
2022-08-14T02:29:17.827Z,38
2022-08-14T02:34:56.113Z,32
2022-08-14T02:40:36.829Z,30
2022-08-14T02:46:24.582Z,41
2022-08-14T02:53:04.278Z,26
2022-08-14T02:58:44.029Z,16
2022-08-14T03:04:26.133Z,24
2022-08-14T03:10:34.731Z,38
2022-08-14T03:16:34.912Z,57
2022-08-14T03:22:18.712Z,24
2022-08-14T03:28:03.394Z,38
2022-08-14T03:33:41.186Z,30
2022-08-14T03:39:29.694Z,32
2022-08-14T03:45:48.100Z,40
2022-08-14T03:51:23.707Z,36
2022-08-14T03:56:58.868Z,44
2022-08-14T04:02:54.094Z,24
2022-08-14T04:08:33.723Z,40
2022-08-14T04:14:15.466Z,42
2022-08-14T04:19:52.517Z,42
2022-08-14T04:25:27.451Z,38
2022-08-14T04:31:04.853Z,28
2022-08-14T04:36:44.882Z,32
2022-08-14T04:42:53.467Z,42
2022-08-14T04:49:01.194Z,36
2022-08-14T04:54:38.196Z,24
2022-08-14T05:00:19.124Z,37
2022-08-14T05:05:57.593Z,28
2022-08-14T05:11:36.947Z,26
2022-08-14T05:17:13.188Z,26
2022-08-14T05:22:56.941Z,38
2022-08-14T05:28:37.634Z,28
2022-08-14T05:34:13.058Z,30
2022-08-14T05:39:50.221Z,38
2022-08-14T05:45:28.427Z,26
2022-08-14T05:51:10.702Z,38
2022-08-14T05:56:45.337Z,42
2022-08-14T06:02:24.362Z,48
2022-08-14T06:07:59.846Z,46
2022-08-14T06:13:46.700Z,52
2022-08-14T06:19:31.213Z,28
2022-08-14T06:25:19.720Z,38
2022-08-14T06:30:58.467Z,32
2022-08-14T06:36:34.197Z,38
2022-08-14T06:42:50.033Z,45
2022-08-14T06:48:22.616Z,34
2022-08-14T06:53:57.397Z,24
2022-08-14T06:59:35.984Z,40
2022-08-14T07:05:24.044Z,24
2022-08-14T07:11:01.939Z,28
2022-08-14T07:16:37.807Z,30
2022-08-14T07:22:22.275Z,26
2022-08-14T07:28:00.932Z,32
2022-08-14T07:33:37.053Z,26
2022-08-14T07:39:16.363Z,32
2022-08-14T07:45:24.336Z,40
2022-08-14T07:51:12.120Z,14
2022-08-14T07:57:00.795Z,14
2022-08-14T08:03:01.032Z,26
2022-08-14T08:08:36.238Z,24
2022-08-14T08:14:18.717Z,6
2022-08-14T08:19:53.440Z,30
2022-08-14T08:25:31.148Z,32
2022-08-14T08:31:09.419Z,30
2022-08-14T08:36:49.625Z,34
2022-08-14T08:42:59.952Z,28
2022-08-14T08:54:32.395Z,16
2022-08-14T09:00:27.582Z,24
2022-08-14T09:06:32.948Z,20
2022-08-14T09:12:55.521Z,10
2022-08-14T09:18:35.643Z,20
2022-08-14T09:24:46.089Z,22
2022-08-14T09:30:34.929Z,22
2022-08-14T09:36:09.515Z,16
2022-08-14T09:42:34.959Z,18
2022-08-14T09:48:09.857Z,8
2022-08-14T09:54:25.053Z,21
2022-08-14T10:00:31.323Z,20
2022-08-14T10:06:10.143Z,18
2022-08-14T10:12:04.467Z,16
2022-08-14T10:17:55.172Z,16
2022-08-14T10:23:36.459Z,18
2022-08-14T10:29:26.496Z,16
2022-08-14T10:35:05.482Z,16
2022-08-14T10:41:03.480Z,30
2022-08-14T10:48:46.326Z,19
2022-08-14T10:54:47.610Z,18
2022-08-14T11:00:37.374Z,18
2022-08-14T11:06:27.587Z,12
2022-08-14T11:12:41.334Z,10
2022-08-14T11:18:45.020Z,18
2022-08-14T11:24:57.049Z,12
2022-08-14T11:30:56.169Z,12
2022-08-14T11:37:41.070Z,8
2022-08-14T11:43:59.580Z,20
2022-08-14T11:49:36.718Z,12
2022-08-14T11:55:12.226Z,18
2022-08-14T12:00:49.690Z,6
2022-08-14T12:06:40.320Z,6
2022-08-14T12:12:37.160Z,6
2022-08-14T12:18:20.646Z,24
2022-08-14T12:23:55.977Z,12
2022-08-14T12:29:35.546Z,12
2022-08-14T12:35:16.815Z,14
2022-08-14T12:40:56.751Z,20
2022-08-14T12:46:32.993Z,14
2022-08-14T12:53:17.469Z,20
2022-08-14T12:58:54.592Z,14
2022-08-14T13:04:29.433Z,6
2022-08-14T13:10:56.666Z,26
2022-08-14T13:16:40.738Z,6
2022-08-14T13:22:44.777Z,10
2022-08-14T13:29:04.306Z,10
2022-08-14T13:34:41.145Z,12
2022-08-14T13:40:17.005Z,18
2022-08-14T13:46:03.654Z,20
2022-08-14T13:51:43.158Z,8
2022-08-14T13:57:31.000Z,14
2022-08-14T14:03:09.072Z,18
2022-08-14T14:08:48.879Z,16
2022-08-14T14:14:56.251Z,6
2022-08-14T14:20:38.824Z,14
2022-08-14T14:26:25.024Z,16
2022-08-14T14:32:00.690Z,22
2022-08-14T14:37:36.479Z,16
2022-08-14T14:43:35.130Z,16
2022-08-14T14:49:15.343Z,18
2022-08-14T14:54:52.037Z,24
2022-08-14T15:00:33.080Z,18
2022-08-14T15:06:08.416Z,18
2022-08-14T15:11:47.700Z,15
2022-08-14T15:17:23.034Z,8
2022-08-14T15:22:58.832Z,18
2022-08-14T15:28:39.814Z,20
2022-08-14T15:34:53.776Z,14
2022-08-14T15:40:31.113Z,14
2022-08-14T15:46:46.527Z,20
2022-08-14T15:52:38.274Z,6
2022-08-14T15:58:15.453Z,32
2022-08-14T16:03:58.864Z,18
2022-08-14T16:09:36.313Z,4
2022-08-14T16:15:13.331Z,14
2022-08-14T16:20:52.697Z,14
2022-08-14T16:26:34.016Z,16
2022-08-14T16:33:06.247Z,12
2022-08-14T16:39:02.924Z,8
2022-08-14T16:45:00.951Z,12
2022-08-14T16:50:46.079Z,12
2022-08-14T16:56:36.865Z,10
2022-08-14T17:02:20.327Z,14
2022-08-14T17:08:01.791Z,14
2022-08-14T17:14:02.631Z,10
2022-08-14T17:19:41.442Z,12
2022-08-14T17:25:30.736Z,18
2022-08-14T17:31:09.231Z,12
2022-08-14T17:36:49.965Z,14
2022-08-14T17:43:02.299Z,16
2022-08-14T17:49:20.117Z,12
2022-08-14T17:55:02.958Z,14
2022-08-14T18:00:50.590Z,10
2022-08-14T18:08:41.838Z,6
2022-08-14T18:14:53.378Z,8
2022-08-14T18:21:58.564Z,14
2022-08-14T18:27:34.157Z,16
2022-08-14T18:33:10.332Z,16
2022-08-14T18:39:01.682Z,20
2022-08-14T18:44:58.345Z,17
2022-08-14T18:50:35.357Z,17
2022-08-14T18:56:20.408Z,12
2022-08-14T19:01:59.122Z,20
2022-08-14T19:07:35.540Z,21
2022-08-14T19:13:22.655Z,8
2022-08-14T19:19:02.423Z,16
2022-08-14T19:24:50.925Z,12
2022-08-14T19:30:30.436Z,10
2022-08-14T19:37:10.812Z,14
2022-08-14T19:43:10.460Z,20
2022-08-14T19:48:58.037Z,22
2022-08-14T19:54:36.709Z,20
2022-08-14T20:00:33.517Z,16
2022-08-14T20:06:28.490Z,10
2022-08-14T20:12:59.100Z,16
2022-08-14T20:18:51.691Z,18
2022-08-14T20:24:32.505Z,14
2022-08-14T20:30:37.155Z,12
2022-08-14T20:36:14.776Z,18
2022-08-14T20:42:06.180Z,12
2022-08-14T20:47:54.276Z,10
2022-08-14T20:53:32.386Z,26
2022-08-14T20:59:18.151Z,16
2022-08-14T21:04:53.093Z,12
2022-08-14T21:10:49.152Z,16
2022-08-14T21:16:59.638Z,10
2022-08-14T21:22:36.074Z,14
2022-08-14T21:28:36.380Z,10
2022-08-14T21:34:33.228Z,18
2022-08-14T21:40:47.769Z,18
2022-08-14T21:46:28.217Z,18
2022-08-14T21:53:04.516Z,16
2022-08-14T21:59:04.883Z,12
2022-08-14T22:04:42.528Z,19
2022-08-14T22:10:25.465Z,16
2022-08-14T22:16:03.294Z,16
2022-08-14T22:21:44.735Z,8
2022-08-14T22:27:22.658Z,16
2022-08-14T22:33:01.372Z,20
2022-08-14T22:38:51.680Z,10
2022-08-14T22:44:50.205Z,17
2022-08-14T22:50:34.407Z,18
2022-08-14T22:56:31.193Z,30
2022-08-14T23:02:12.542Z,14
2022-08-14T23:09:56.168Z,10
2022-08-14T23:16:07.110Z,20
2022-08-14T23:21:49.882Z,16
2022-08-14T23:28:05.601Z,10
2022-08-14T23:33:53.968Z,16
2022-08-14T23:39:33.015Z,12
2022-08-14T23:45:37.474Z,20
2022-08-14T23:51:14.950Z,19
2022-08-14T23:57:04.682Z,18
